Last 48 Hours

Top of 15 - 9,047ft

15 Minute Data | America/Los_Angeles
as of 7/14/24 4:15 PM PDT
Date & Time Temp (°F) RH (%) Dew Pt (°F) Wet Bulb (°F) Wind Dir (°) Wind Spd (mph) Wind Gust (mph) Wind Gst Dir (°) Daily Min Temp (°F) Daily Max Temp (°F) Daily Max Wind (mph)
7/14/24 - 1600 66.8 34 37.2 51.2 SSE | 154 1.5 7.8 SSE | 159 49.3 69.4 26.0
7/14/24 - 1545 65.3 35 36.7 50.4 WSW | 243 4.6 15.6 SW | 236 49.3 68.8 26.0
7/14/24 - 1530 67.0 33 36.7 51.0 WSW | 244 5.1 12.9 SW | 230 49.3 68.8 26.0
7/14/24 - 1515 67.1 32 36.6 51.0 WSW | 252 2.9 15.0 W | 276 49.3 68.8 26.0
7/14/24 - 1500 66.6 32 35.8 50.5 WSW | 243 6.5 18.0 WSW | 255 49.3 68.8 26.0
7/14/24 - 1445 68.2 32 37.3 51.7 SW | 220 5.6 15.4 SW | 227 49.3 68.8 26.0
7/14/24 - 1430 67.4 34 37.7 51.5 SW | 224 6.4 19.0 WSW | 248 49.3 68.8 26.0
7/14/24 - 1415 66.2 35 37.4 51.0 SW | 223 6.1 17.9 SSW | 201 49.3 68.0 26.0
7/14/24 - 1400 65.0 35 37.0 50.4 SW | 231 6.0 16.6 WSW | 245 49.3 67.0 26.0
7/14/24 - 1345 65.8 36 38.2 51.2 SW | 227 6.6 19.4 WSW | 247 49.3 66.8 26.0
7/14/24 - 1330 63.0 39 37.3 49.8 SW | 228 6.7 19.4 SW | 226 49.3 66.6 26.0
7/14/24 - 1315 64.7 38 38.3 50.8 SW | 226 7.1 20.9 SW | 229 49.3 66.6 26.0
7/14/24 - 1300 64.7 38 38.5 50.9 SW | 215 4.8 17.1 SSW | 202 49.3 66.6 26.0
7/14/24 - 1245 63.6 39 38.1 50.3 WSW | 237 4.4 14.8 SW | 215 49.3 65.8 26.0
7/14/24 - 1230 63.1 39 38.0 50.1 SW | 223 2.8 10.4 SSW | 202 49.3 65.8 26.0
7/14/24 - 1215 62.1 37 35.6 48.8 W | 275 3.7 12.4 WSW | 240 49.3 65.8 26.0
7/14/24 - 1200 62.7 38 36.6 49.4 W | 276 4.9 19.7 W | 272 49.3 65.8 26.0
7/14/24 - 1145 63.2 45 41.3 51.6 WSW | 248 3.6 13.6 SSE | 153 49.3 64.9 26.0
7/14/24 - 1130 60.8 44 38.9 49.6 WSW | 243 5.2 12.6 SW | 229 49.3 62.3 26.0
7/14/24 - 1115 60.2 46 39.6 49.7 WSW | 242 3.1 9.0 SW | 230 49.3 61.7 26.0
7/14/24 - 1100 58.8 49 39.9 49.2 WSW | 247 2.5 6.3 WSW | 255 49.3 60.1 26.0
7/14/24 - 1045 53.0 67 42.0 47.8 W | 273 5.1 10.3 W | 266 49.3 57.5 26.0
7/14/24 - 1030 52.3 60 38.8 46.0 W | 265 3.4 8.2 WNW | 286 49.3 57.5 26.0
7/14/24 - 1015 50.6 63 38.5 45.1 W | 280 2.3 8.8 W | 278 49.3 57.5 26.0
7/14/24 - 1000 52.5 58 38.2 45.8 WNW | 285 6.7 18.2 WNW | 296 51.0 57.5 26.0
7/14/24 - 0945 55.4 53 38.5 47.2 W | 280 8.6 26.0 W | 276 52.1 57.5 26.0
7/14/24 - 0930 55.4 57 40.5 48.1 W | 277 5.0 23.1 WNW | 292 52.1 57.5 23.1
7/14/24 - 0915 55.5 60 41.7 48.7 W | 264 2.3 10.3 NW | 314 52.1 57.5 18.2
7/14/24 - 0900 54.9 62 42.2 48.7 W | 262 5.0 18.2 WSW | 255 52.1 57.5 18.2
7/14/24 - 0845 54.9 61 41.8 48.5 W | 265 3.9 13.1 SSW | 197 52.1 57.5 15.4
7/14/24 - 0830 56.4 57 41.5 49.0 SW | 233 3.2 10.0 SW | 232 52.1 57.5 15.4
7/14/24 - 0815 55.9 56 40.3 48.2 SW | 234 2.8 15.4 SW | 220 52.1 57.5 15.4
7/14/24 - 0800 55.8 55 39.7 47.9 W | 260 3.0 9.6 WSW | 238 52.1 57.5 15.1
7/14/24 - 0745 56.2 55 40.1 48.3 W | 262 1.8 9.3 SSW | 209 52.1 57.5 15.1
7/14/24 - 0730 56.9 54 40.7 48.8 WSW | 242 3.8 10.6 WSW | 243 52.1 57.5 15.1
7/14/24 - 0715 57.1 52 39.8 48.5 WSW | 238 4.7 15.1 WSW | 245 52.1 57.5 15.1
7/14/24 - 0700 56.8 52 39.7 48.3 WSW | 253 2.3 8.1 SW | 224 52.1 57.3 11.3
7/14/24 - 0645 56.8 53 39.7 48.3 SW | 219 0.9 3.5 SW | 216 52.1 57.3 11.3
7/14/24 - 0630 56.8 50 38.7 47.9 W | 276 3.6 11.3 W | 272 52.1 57.3 11.3
7/14/24 - 0615 56.7 50 38.4 47.7 W | 269 3.1 7.8 WSW | 251 52.1 57.3 9.2
7/14/24 - 0600 56.5 51 38.6 47.7 W | 270 3.3 7.9 WSW | 251 52.1 57.3 9.2
7/14/24 - 0545 56.7 53 39.6 48.3 W | 275 2.5 4.7 W | 274 52.1 57.3 9.2
7/14/24 - 0530 56.3 55 40.3 48.4 W | 271 0.8 3.5 WNW | 295 52.1 57.3 9.2
7/14/24 - 0515 56.1 56 40.7 48.5 W | 280 3.2 8.9 W | 281 52.1 57.3 9.2
7/14/24 - 0500 56.3 55 40.5 48.5 W | 268 3.8 9.2 W | 262 52.1 57.3 9.2
7/14/24 - 0445 56.9 54 40.4 48.7 NNE | 20 0.5 2.6 WNW | 301 52.1 57.3 6.5
7/14/24 - 0430 57.2 48 37.7 47.6 NW | 319 1.5 5.6 WNW | 289 52.1 57.3 6.5
7/14/24 - 0415 53.5 53 36.7 45.6 NNW | 331 0.3 1.5 NNW | 329 52.1 56.8 6.5
7/14/24 - 0400 53.0 54 36.6 45.3 NW | 308 1.5 2.8 NW | 314 52.1 55.4 6.5
7/14/24 - 0345 52.7 54 36.5 45.1 NW | 312 0.2 2.1 NW | 326 52.1 55.4 6.5
7/14/24 - 0330 52.6 55 37.0 45.3 WNW | 298 0.7 3.4 W | 261 52.1 55.4 6.5
7/14/24 - 0315 53.2 54 36.8 45.5 WNW | 291 1.5 6.5 W | 272 52.9 55.4 6.5
7/14/24 - 0300 53.4 53 36.8 45.6 WNW | 289 0.7 2.3 W | 261 52.9 55.4 4.4
7/14/24 - 0245 54.1 52 36.7 45.9 WNW | 298 1.8 4.4 NW | 307 53.6 55.4 4.4
7/14/24 - 0230 53.9 53 37.0 45.9 NW | 311 0.4 4.0 W | 264 53.6 55.4 4.0
7/14/24 - 0215 54.3 53 37.6 46.3 NW | 308 1.4 3.1 NW | 318 54.0 55.4 3.1
7/14/24 - 0200 54.3 55 38.4 46.7 WNW | 292 1.2 3.0 WNW | 286 54.0 55.4 3.0
7/14/24 - 0145 54.8 54 38.4 46.9 NW | 306 0.3 2.0 WNW | 283 54.1 55.4 2.9
7/14/24 - 0130 55.0 53 38.4 47.0 NNW | 342 1.2 2.9 NW | 305 54.7 55.4 2.9
7/14/24 - 0115 55.1 53 38.3 47.0 WNW | 285 1.3 2.9 WNW | 288 54.7 55.4 2.9
7/14/24 - 0100 55.1 54 38.5 47.1 N | 358 0.7 2.1 ENE | 62 49.6 74.8 36.8
7/14/24 - 0045 54.7 55 38.9 47.1 NNW | 340 0.7 2.9 NW | 321 49.6 74.8 36.8
7/14/24 - 0030 54.9 55 39.0 47.2 WNW | 294 2.9 5.4 WNW | 286 49.6 74.8 36.8
7/14/24 - 0015 54.2 58 39.8 47.3 NNW | 339 1.1 3.0 NW | 324 49.6 74.8 36.8
7/14/24 - 0000 53.8 61 40.5 47.4 NW | 317 1.6 5.8 WNW | 283 49.6 74.8 36.8
7/13/24 - 2345 54.3 60 40.8 47.8 NNW | 337 1.7 4.0 W | 266 49.6 74.8 36.8
7/13/24 - 2330 52.6 68 42.3 47.7 NNW | 327 3.1 5.6 NW | 318 49.6 74.8 36.8
7/13/24 - 2315 50.4 80 44.4 47.8 W | 271 3.4 5.6 WSW | 248 49.6 74.8 36.8
7/13/24 - 2300 49.9 82 44.8 47.8 WNW | 296 0.9 4.1 NE | 36 49.6 74.8 36.8
7/13/24 - 2245 50.4 81 44.8 48.0 N | 3 0.2 1.4 NE | 48 49.8 74.8 36.8
7/13/24 - 2230 51.1 79 44.7 48.3 E | 85 1.6 4.2 E | 85 50.8 74.8 36.8
7/13/24 - 2215 51.8 77 44.8 48.7 ESE | 104 1.2 4.6 ESE | 103 51.7 74.8 36.8
7/13/24 - 2200 52.7 73 44.3 48.8 NE | 53 2.2 5.6 ENE | 61 52.2 74.8 36.8
7/13/24 - 2145 53.0 73 44.5 49.0 NE | 34 2.2 5.9 N | 350 52.6 74.8 36.8
7/13/24 - 2130 53.5 73 45.1 49.6 E | 84 3.3 10.7 ENE | 77 52.9 74.8 36.8
7/13/24 - 2115 54.5 71 45.2 50.1 NE | 36 5.1 10.5 ENE | 71 52.9 74.8 36.8
7/13/24 - 2100 55.8 64 43.9 50.0 ENE | 57 2.4 6.6 NNE | 19 52.9 74.8 36.8
7/13/24 - 2045 56.7 58 42.1 49.4 ESE | 115 3.6 9.4 ESE | 104 52.9 74.8 36.8
7/13/24 - 2030 56.9 52 39.6 48.3 NNE | 24 3.3 10.9 ENE | 72 52.9 74.8 36.8
7/13/24 - 2015 58.3 46 37.5 48.0 ESE | 106 3.1 13.1 E | 88 52.9 74.8 36.8
7/13/24 - 2000 60.4 37 34.2 47.6 WSW | 246 5.9 15.5 SSE | 151 52.9 74.8 36.8
7/13/24 - 1945 61.1 36 33.6 47.6 W | 263 6.3 10.9 WSW | 250 52.9 74.8 36.8
7/13/24 - 1930 61.7 35 33.6 47.9 WSW | 249 5.2 14.5 WSW | 243 52.9 74.8 36.8
7/13/24 - 1915 61.5 33 32.5 47.4 W | 261 7.8 14.0 W | 266 52.9 74.8 36.8
7/13/24 - 1900 60.2 38 34.5 47.6 W | 265 10.4 19.1 W | 264 52.9 74.8 36.8
7/13/24 - 1845 61.5 34 32.8 47.5 W | 270 10.1 17.6 W | 263 52.9 74.8 36.8
7/13/24 - 1830 60.8 35 33.2 47.4 W | 264 3.9 17.5 W | 264 52.9 74.8 36.8
7/13/24 - 1815 59.8 37 33.7 47.1 WNW | 296 0.5 4.0 NNW | 331 52.9 74.8 36.8
7/13/24 - 1800 58.4 41 34.8 47.0 W | 270 5.5 15.2 W | 264 52.9 74.8 36.8
7/13/24 - 1745 56.3 47 36.2 46.6 W | 276 9.0 22.8 WNW | 298 52.9 74.8 36.8
7/13/24 - 1730 55.0 52 37.9 46.8 W | 272 9.8 22.7 W | 278 52.9 74.8 36.8
7/13/24 - 1715 53.8 56 38.6 46.5 WSW | 245 10.7 21.3 WSW | 240 52.9 74.8 36.8
7/13/24 - 1700 53.8 55 37.9 46.2 WSW | 240 15.5 36.8 SW | 232 52.9 74.8 36.8
7/13/24 - 1645 55.4 54 38.9 47.4 SW | 232 12.2 30.7 SW | 236 54.4 74.8 30.7
7/13/24 - 1630 61.7 41 37.6 49.4 SW | 220 4.8 19.8 WSW | 243 57.6 74.8 22.8
7/13/24 - 1615 66.2 29 33.2 49.5 WSW | 245 6.7 19.6 SW | 231 57.6 74.8 22.8
7/13/24 - 1600 67.8 24 30.2 49.0 WSW | 238 6.4 15.8 W | 276 57.6 74.8 22.8
7/13/24 - 1545 69.7 23 30.4 49.8 SW | 229 4.5 12.8 WSW | 252 57.6 74.8 22.8
7/13/24 - 1530 71.9 22 30.7 50.6 WSW | 247 4.7 12.5 WSW | 244 57.6 74.8 22.8
7/13/24 - 1515 70.6 23 31.0 50.3 SSE | 151 1.8 8.5 NNW | 337 57.6 74.8 22.8
7/13/24 - 1500 70.4 23 31.4 50.3 SSW | 206 2.5 8.8 NE | 40 57.6 74.8 22.8
7/13/24 - 1445 69.2 23 29.9 49.5 SE | 135 1.4 4.9 ESE | 116 57.6 74.8 22.8
7/13/24 - 1430 69.2 22 29.2 49.3 SSE | 159 1.2 4.8 SSE | 150 57.6 74.8 22.8
7/13/24 - 1415 68.6 23 29.4 49.1 WNW | 297 0.6 2.8 E | 93 57.6 74.8 22.8
7/13/24 - 1400 68.6 24 30.7 49.5 E | 86 1.7 5.8 ESE | 104 57.6 74.8 22.8
7/13/24 - 1345 67.7 26 31.8 49.5 E | 98 4.1 9.2 ESE | 104 57.6 74.8 22.8
7/13/24 - 1330 68.1 25 31.3 49.5 ESE | 107 6.0 12.4 E | 87 57.6 74.8 22.8
7/13/24 - 1315 69.8 24 31.1 50.1 ESE | 114 9.4 19.3 ESE | 114 57.6 74.8 22.8
7/13/24 - 1300 72.1 21 30.2 50.6 ESE | 117 10.8 22.1 SE | 125 57.6 74.8 22.8
7/13/24 - 1245 71.8 20 29.0 50.1 SE | 129 7.4 17.5 ESE | 112 57.6 74.8 22.8
7/13/24 - 1230 67.8 24 30.0 49.0 SE | 136 4.8 11.6 SSE | 155 57.6 74.8 22.8
7/13/24 - 1215 67.8 24 29.3 48.8 SW | 235 5.2 16.9 SSW | 213 57.6 74.8 22.8
7/13/24 - 1200 69.2 22 28.2 49.0 S | 191 3.0 12.4 WSW | 242 57.6 74.8 22.8
7/13/24 - 1145 72.1 20 28.6 50.1 SE | 139 5.9 21.8 SE | 146 57.6 74.8 22.8
7/13/24 - 1130 71.1 21 28.7 49.8 E | 94 3.7 10.5 E | 93 57.6 72.5 22.8
7/13/24 - 1115 70.3 20 27.0 49.0 E | 85 1.7 5.6 ENE | 64 57.6 71.8 22.8
7/13/24 - 1100 69.5 22 28.6 49.2 E | 86 1.6 10.5 N | 9 57.6 71.2 22.8
7/13/24 - 1045 68.2 22 28.2 48.6 S | 182 2.1 7.0 WSW | 237 57.6 71.2 22.8
7/13/24 - 1030 64.5 27 29.6 47.6 W | 281 3.7 11.5 NW | 320 57.6 67.3 22.8
7/13/24 - 1015 64.6 26 29.4 47.6 WSW | 253 5.0 14.4 W | 259 57.6 67.3 22.8
7/13/24 - 1000 64.2 28 30.4 47.8 W | 261 5.5 14.3 WSW | 256 57.6 67.3 22.8
7/13/24 - 0945 64.6 26 29.1 47.5 WSW | 244 4.7 13.6 SSW | 209 57.6 67.3 22.8
7/13/24 - 0930 64.7 26 28.6 47.4 WSW | 249 5.7 14.4 WSW | 248 57.6 67.3 22.8
7/13/24 - 0915 65.8 24 28.0 47.6 WSW | 240 5.2 13.6 SW | 230 57.6 67.3 22.8
7/13/24 - 0900 63.8 26 28.3 47.0 W | 263 6.5 18.5 WSW | 246 57.6 67.1 22.8
7/13/24 - 0845 63.2 27 28.5 46.8 WSW | 258 9.2 21.0 W | 263 57.6 67.1 22.8
7/13/24 - 0830 64.6 25 27.9 47.2 W | 279 11.4 22.8 WNW | 290 57.6 67.1 22.8
7/13/24 - 0815 64.6 24 26.5 46.8 W | 273 6.6 16.6 NW | 315 57.6 67.1 17.0
7/13/24 - 0800 64.8 23 26.3 46.8 W | 275 9.1 17.0 W | 281 57.6 67.1 17.0
7/13/24 - 0745 66.3 21 25.4 47.2 WSW | 252 5.6 10.2 WSW | 239 57.6 67.1 12.4
7/13/24 - 0730 64.6 23 25.8 46.6 W | 272 2.2 6.2 SSW | 213 57.6 65.8 12.4
7/13/24 - 0715 62.6 26 27.2 46.2 WNW | 298 2.9 5.9 WNW | 297 57.6 64.7 12.4
7/13/24 - 0700 61.9 27 27.3 45.9 WNW | 292 5.2 8.8 WNW | 287 57.6 64.6 12.4
7/13/24 - 0645 62.2 25 26.3 45.7 NW | 307 2.6 4.0 NW | 321 57.6 64.6 12.4
7/13/24 - 0630 61.2 27 27.2 45.6 WNW | 297 3.9 7.8 WNW | 287 57.6 64.6 12.4
7/13/24 - 0615 61.0 27 27.0 45.4 WNW | 287 4.1 7.0 WNW | 286 57.6 64.6 12.4
7/13/24 - 0600 60.8 27 26.6 45.3 WNW | 292 3.0 4.2 WNW | 294 57.6 64.6 12.4
7/13/24 - 0545 61.0 27 26.4 45.3 WNW | 288 3.4 4.9 WNW | 285 57.6 64.6 12.4
7/13/24 - 0530 61.4 26 26.1 45.3 WNW | 286 3.0 4.7 WNW | 292 57.6 64.6 12.4
7/13/24 - 0515 61.3 26 25.7 45.2 WNW | 287 2.4 3.8 WNW | 294 57.6 64.6 12.4
7/13/24 - 0500 60.8 26 25.8 45.0 W | 279 2.9 4.7 WNW | 294 57.6 64.6 12.4
7/13/24 - 0445 60.3 27 25.9 44.8 W | 279 2.4 4.2 W | 281 57.6 64.6 12.4
7/13/24 - 0430 60.3 26 25.8 44.8 NW | 308 0.8 3.3 NW | 320 57.6 64.6 12.4
7/13/24 - 0415 60.1 27 25.8 44.8 NW | 314 1.4 4.4 NW | 309 57.6 64.6 12.4
7/13/24 - 0400 60.4 26 25.7 44.8 NW | 326 1.7 7.2 NNW | 330 57.6 64.6 12.4
7/13/24 - 0345 60.3 27 25.8 44.8 NNW | 341 1.8 4.7 NNW | 346 57.6 64.6 12.4
7/13/24 - 0330 60.3 27 26.1 44.9 NNW | 328 2.5 5.1 NW | 314 57.6 64.6 12.4
7/13/24 - 0315 60.5 27 26.4 45.1 NNW | 341 1.8 5.3 NW | 320 57.6 64.6 12.4
7/13/24 - 0300 59.4 29 27.1 44.8 NNW | 330 3.5 8.7 NW | 313 57.6 64.6 12.4
7/13/24 - 0245 60.9 26 26.0 45.2 NNW | 328 1.0 4.5 NE | 45 60.3 64.6 12.4
7/13/24 - 0230 61.0 26 26.0 45.2 WNW | 298 1.8 4.0 WNW | 289 60.4 64.6 12.4
7/13/24 - 0215 62.0 25 25.6 45.5 N | 359 1.8 6.0 NNW | 344 61.5 64.6 12.4
7/13/24 - 0200 62.4 24 25.4 45.6 NNW | 330 1.1 3.6 NNW | 340 62.0 64.6 12.4
7/13/24 - 0145 63.3 23 25.2 45.9 NNW | 340 0.5 2.6 NW | 316 62.6 64.6 12.4
7/13/24 - 0130 63.6 23 25.6 46.1 NW | 310 3.4 7.1 NW | 311 62.6 64.6 12.4
7/13/24 - 0115 63.0 25 26.8 46.2 WNW | 294 6.0 12.4 W | 280 62.6 64.6 12.4
7/13/24 - 0100 64.5 23 26.2 46.7 W | 277 4.4 9.4 W | 262 60.4 78.1 29.8
7/13/24 - 0045 64.4 24 26.4 46.7 WNW | 294 2.7 4.8 W | 278 60.4 78.1 29.8
7/13/24 - 0030 64.5 23 25.8 46.5 W | 279 4.5 6.5 W | 263 60.4 78.1 29.8
7/13/24 - 0015 64.3 23 25.7 46.4 WNW | 288 3.2 5.3 W | 281 60.4 78.1 29.8
7/13/24 - 0000 63.4 24 25.8 46.1 NNW | 330 1.6 4.4 NW | 305 60.4 78.1 29.8
7/12/24 - 2345 64.4 23 26.0 46.6 NW | 315 3.3 7.3 NW | 324 60.4 78.1 29.8
7/12/24 - 2330 63.5 25 27.1 46.5 NW | 313 2.9 5.0 WNW | 300 60.4 78.1 29.8
7/12/24 - 2315 63.1 27 28.7 46.8 W | 269 1.4 5.1 W | 280 60.4 78.1 29.8
7/12/24 - 2300 63.8 28 30.4 47.6 NW | 312 2.0 5.4 WNW | 300 60.4 78.1 29.8
7/12/24 - 2245 63.7 34 34.4 49.0 NW | 313 3.4 9.2 NW | 320 60.4 78.1 29.8
7/12/24 - 2230 63.0 37 36.2 49.5 N | 9 2.4 5.1 NW | 322 60.4 78.1 29.8
7/12/24 - 2215 65.6 23 26.9 47.3 SSW | 206 1.8 8.6 WSW | 241 60.4 78.1 29.8
7/12/24 - 2200 64.9 27 30.5 48.1 WSW | 248 4.8 13.2 SW | 235 60.4 78.1 29.8
7/12/24 - 2145 65.2 26 29.9 48.0 WSW | 247 7.5 18.0 WSW | 256 60.4 78.1 29.8
7/12/24 - 2130 65.2 28 30.9 48.3 WSW | 252 6.2 11.1 WSW | 242 60.4 78.1 29.8
7/12/24 - 2115 63.6 39 38.2 50.4 WSW | 240 7.7 18.4 W | 279 60.4 78.1 29.8
7/12/24 - 2100 63.3 41 39.5 50.8 WSW | 251 9.5 17.8 W | 263 60.4 78.1 29.8
7/12/24 - 2045 63.9 38 37.4 50.2 WSW | 256 10.3 22.2 WSW | 258 60.4 78.1 29.8
7/12/24 - 2030 65.3 27 30.5 48.3 W | 275 9.0 17.3 WSW | 247 60.4 78.1 29.8
7/12/24 - 2015 66.6 21 25.9 47.4 WNW | 282 4.6 10.4 WSW | 250 60.4 78.1 29.8
7/12/24 - 2000 67.2 19 24.2 47.2 W | 275 5.2 12.4 W | 272 60.4 78.1 29.8
7/12/24 - 1945 67.8 19 24.6 47.5 W | 272 6.6 16.0 SW | 216 60.4 78.1 29.8
7/12/24 - 1930 68.5 17 22.0 47.1 W | 265 6.4 16.2 WSW | 258 60.4 78.1 29.8
7/12/24 - 1915 68.7 17 21.8 47.2 W | 266 3.6 9.7 W | 280 60.4 78.1 29.8
7/12/24 - 1900 68.4 19 24.1 47.6 W | 265 3.9 9.6 W | 265 60.4 78.1 29.8
7/12/24 - 1845 68.7 18 23.5 47.6 WSW | 253 3.0 9.2 W | 276 60.4 78.1 29.8
7/12/24 - 1830 68.7 19 24.9 47.9 WSW | 252 3.2 8.9 W | 272 60.4 78.1 29.8
7/12/24 - 1815 68.5 21 26.6 48.3 W | 273 4.6 9.2 WNW | 286 60.4 78.1 29.8
7/12/24 - 1800 68.5 21 26.8 48.3 W | 273 4.6 10.2 NW | 307 60.4 78.1 29.8
7/12/24 - 1745 69.5 19 24.9 48.2 W | 270 2.8 9.0 WSW | 254 60.4 78.1 29.8
7/12/24 - 1730 70.4 17 24.1 48.3 NW | 322 1.6 6.5 W | 274 60.4 78.1 29.8
7/12/24 - 1715 70.5 18 24.7 48.5 SSE | 161 0.5 3.9 W | 273 60.4 78.1 29.8
7/12/24 - 1700 70.8 19 26.4 49.0 W | 274 0.3 4.4 SW | 222 60.4 78.1 29.8
7/12/24 - 1645 70.4 18 24.9 48.6 WSW | 246 2.3 9.6 W | 272 60.4 78.1 29.8
7/12/24 - 1630 69.6 19 25.5 48.4 W | 261 4.3 10.4 WSW | 255 60.4 78.1 29.8
7/12/24 - 1615 68.6 19 24.9 47.9 W | 272 3.6 11.2 W | 273 60.4 78.1 29.8
Max 72.1 82 45.2 51.7 - 15.5 36.8 - 62.6 78.1 36.8
Avg 61.5 38 33.3 47.9 - 3.9 10.4 - - - -
Min 49.9 17 21.8 44.8 - 0.2 1.4 - 49.3 55.4 2.9